Time;durP1;ratioP1;P1;durP2;ratioP2;P2;SDS_P1;SDS_P2;PMS_P1;PMS_P2;Temp;Humidity;BMP_temperature;BMP_pressure;BME280_temperature;BME280_humidity;BME280_pressure;Samples;Min_cycle;Max_cycle;Signal;HPM_P1;HPM_P2
2023/05/11 00:00:48;;;;;;;7.85;3.65;;;;;;;;;;6208180;23;20067;-84
2023/05/11 00:03:15;;;;;;;5.95;3.50;;;;;;;;;;6208539;23;20096;-84
2023/05/11 00:05:46;;;;;;;8.20;3.40;;;;;;;;;;6209733;23;20028;-84
2023/05/11 00:08:20;;;;;;;8.80;3.40;;;;;;;;;;6211446;23;20023;-84
2023/05/11 00:10:47;;;;;;;8.68;3.83;;;;;;;;;;6210419;23;20028;-85
2023/05/11 00:13:21;;;;;;;5.07;3.22;;;;;;;;;;6210140;23;20024;-85
2023/05/11 00:16:01;;;;;;;11.60;3.80;;;;;;;;;;6210001;23;20107;-84
2023/05/11 00:18:35;;;;;;;7.40;3.58;;;;;;;;;;6209725;23;20043;-84
2023/05/11 00:21:02;;;;;;;7.38;3.30;;;;;;;;;;6210151;23;20335;-84
2023/05/11 00:23:30;;;;;;;7.47;3.53;;;;;;;;;;6209506;23;20165;-85
2023/05/11 00:26:04;;;;;;;9.13;3.92;;;;;;;;;;6210905;23;20055;-84
2023/05/11 00:28:31;;;;;;;;;;;;;;;;;;6209156;23;20108;-84
2023/05/11 00:31:05;;;;;;;8.95;3.70;;;;;;;;;;6211140;23;19922;-84
2023/05/11 00:33:32;;;;;;;7.82;3.50;;;;;;;;;;6183897;23;20063;-85
2023/05/11 00:35:59;;;;;;;9.40;3.65;;;;;;;;;;6209051;23;20027;-84
2023/05/11 00:38:33;;;;;;;6.55;3.42;;;;;;;;;;6210203;23;20017;-84
2023/05/11 00:41:00;;;;;;;11.43;3.97;;;;;;;;;;6210435;23;20123;-83
2023/05/11 00:43:34;;;;;;;9.50;3.97;;;;;;;;;;6209800;23;20028;-83
2023/05/11 00:46:02;;;;;;;5.55;3.53;;;;;;;;;;6210922;23;20017;-84
2023/05/11 00:48:30;;;;;;;7.53;3.58;;;;;;;;;;6209290;23;20047;-84
2023/05/11 00:51:04;;;;;;;6.47;3.45;;;;;;;;;;6210338;23;20403;-84
2023/05/11 00:53:31;;;;;;;10.25;3.90;;;;;;;;;;6209933;23;20039;-84
2023/05/11 00:55:58;;;;;;;8.75;3.80;;;;;;;;;;6210494;23;20025;-84
2023/05/11 00:58:33;;;;;;;12.30;3.55;;;;;;;;;;6206849;23;20035;-84
2023/05/11 01:01:00;;;;;;;6.90;3.63;;;;;;;;;;6210153;23;20048;-83
2023/05/11 01:03:35;;;;;;;9.40;3.80;;;;;;;;;;6208934;23;20024;-83
2023/05/11 01:06:11;;;;;;;12.20;3.58;;;;;;;;;;6207672;23;20063;-84
2023/05/11 01:08:52;;;;;;;9.73;3.60;;;;;;;;;;6208031;23;20017;-83
2023/05/11 01:11:20;;;;;;;6.68;3.55;;;;;;;;;;6211235;23;20062;-82
2023/05/11 01:14:02;;;;;;;9.00;3.53;;;;;;;;;;6210383;23;20025;-83
2023/05/11 01:16:37;;;;;;;8.32;4.00;;;;;;;;;;6209512;23;20032;-83
2023/05/11 01:19:22;;;;;;;7.97;4.07;;;;;;;;;;6210098;23;20021;-83
2023/05/11 01:21:50;;;;;;;7.03;3.60;;;;;;;;;;6208936;23;20103;-83
2023/05/11 01:24:24;;;;;;;7.25;3.80;;;;;;;;;;6185091;23;20099;-83
2023/05/11 01:26:57;;;;;;;9.13;3.38;;;;;;;;;;6209376;23;20040;-84
2023/05/11 01:29:46;;;;;;;6.30;3.60;;;;;;;;;;6210185;23;20059;-84
2023/05/11 01:32:16;;;;;;;9.20;4.18;;;;;;;;;;6209796;23;20021;-83
2023/05/11 01:35:00;;;;;;;8.50;3.33;;;;;;;;;;6208599;23;20028;-85
2023/05/11 01:37:27;;;;;;;5.63;3.72;;;;;;;;;;6183490;23;20059;-84
2023/05/11 01:40:03;;;;;;;4.30;3.53;;;;;;;;;;6209165;23;20080;-84
2023/05/11 01:42:34;;;;;;;7.15;3.65;;;;;;;;;;6208733;23;20533;-84
2023/05/11 01:45:10;;;;;;;12.80;4.07;;;;;;;;;;6207651;23;20470;-84
2023/05/11 01:47:38;;;;;;;7.93;3.97;;;;;;;;;;6208265;23;20465;-83
2023/05/11 01:50:06;;;;;;;8.40;3.60;;;;;;;;;;6209441;23;20035;-84
2023/05/11 01:52:42;;;;;;;6.25;3.97;;;;;;;;;;6209367;23;20032;-84
2023/05/11 01:55:09;;;;;;;5.15;3.63;;;;;;;;;;6209679;23;20055;-84
2023/05/11 01:57:43;;;;;;;7.53;3.45;;;;;;;;;;6209332;23;20112;-83
2023/05/11 02:00:11;;;;;;;9.35;4.30;;;;;;;;;;6208391;23;20103;-84
2023/05/11 02:02:38;;;;;;;;;;;;;;;;;;6208991;23;20155;-83
2023/05/11 02:05:13;;;;;;;10.38;3.80;;;;;;;;;;6209266;23;19915;-84
2023/05/11 02:07:42;;;;;;;9.48;4.22;;;;;;;;;;6208152;23;20063;-84
2023/05/11 02:10:16;;;;;;;7.05;3.97;;;;;;;;;;6209380;23;20131;-83
2023/05/11 02:12:45;;;;;;;9.75;3.75;;;;;;;;;;6209166;23;20020;-83
2023/05/11 02:15:13;;;;;;;10.13;4.60;;;;;;;;;;6209503;23;20043;-83
2023/05/11 02:17:54;;;;;;;17.20;4.10;;;;;;;;;;6207909;23;20469;-83
2023/05/11 02:20:21;;;;;;;10.88;4.05;;;;;;;;;;6210122;23;20059;-83
2023/05/11 02:22:56;;;;;;;7.15;3.80;;;;;;;;;;6208756;23;20135;-83
2023/05/11 02:25:23;;;;;;;9.18;3.72;;;;;;;;;;6209188;23;20048;-83
2023/05/11 02:27:58;;;;;;;7.15;3.70;;;;;;;;;;6209243;23;20075;-83
2023/05/11 02:30:26;;;;;;;13.23;3.55;;;;;;;;;;6182587;23;20048;-83
2023/05/11 02:32:55;;;;;;;12.75;4.30;;;;;;;;;;6180530;23;20017;-83
2023/05/11 02:35:29;;;;;;;13.93;4.20;;;;;;;;;;6209295;23;20331;-84
2023/05/11 02:37:59;;;;;;;6.47;4.10;;;;;;;;;;6209094;23;20020;-83
2023/05/11 02:40:34;;;;;;;12.18;4.45;;;;;;;;;;6208814;23;20063;-84
2023/05/11 02:43:03;;;;;;;8.07;4.13;;;;;;;;;;6209043;23;20486;-83
2023/05/11 02:45:38;;;;;;;8.65;4.20;;;;;;;;;;6208057;23;20401;-83
2023/05/11 02:48:08;;;;;;;12.05;4.55;;;;;;;;;;6206639;23;20108;-83
2023/05/11 02:50:37;;;;;;;8.85;4.55;;;;;;;;;;6208734;23;20021;-85
2023/05/11 02:53:14;;;;;;;7.47;4.88;;;;;;;;;;6208869;23;20059;-83
2023/05/11 02:55:48;;;;;;;12.80;4.50;;;;;;;;;;6206501;23;20059;-83
2023/05/11 02:58:15;;;;;;;14.75;4.40;;;;;;;;;;6208106;23;20030;-83
2023/05/11 03:00:43;;;;;;;9.05;4.45;;;;;;;;;;6207739;23;20466;-83
2023/05/11 03:03:17;;;;;;;12.68;4.10;;;;;;;;;;6208275;23;20028;-82
2023/05/11 03:05:44;;;;;;;6.57;4.50;;;;;;;;;;6209098;23;20524;-83
2023/05/11 03:08:18;;;;;;;12.60;4.28;;;;;;;;;;6208224;23;20027;-83
2023/05/11 03:10:46;;;;;;;14.57;4.53;;;;;;;;;;6205432;23;20024;-83
2023/05/11 03:13:13;;;;;;;14.30;5.13;;;;;;;;;;6205560;23;20104;-82
2023/05/11 03:15:53;;;;;;;17.55;5.03;;;;;;;;;;6205584;23;20108;-82
2023/05/11 03:18:28;;;;;;;10.05;5.10;;;;;;;;;;6206245;23;20428;-83
2023/05/11 03:21:02;;;;;;;11.98;5.18;;;;;;;;;;6205897;23;20020;-83
2023/05/11 03:23:30;;;;;;;12.57;5.28;;;;;;;;;;6206302;23;20100;-83
2023/05/11 03:25:58;;;;;;;13.05;5.05;;;;;;;;;;6209077;23;20115;-83
2023/05/11 03:28:32;;;;;;;14.60;5.28;;;;;;;;;;6209606;23;20116;-83
2023/05/11 03:30:59;;;;;;;10.02;5.30;;;;;;;;;;6182385;23;20359;-83
2023/05/11 03:33:27;;;;;;;13.88;4.78;;;;;;;;;;6207546;23;20079;-83
2023/05/11 03:36:02;;;;;;;10.68;5.10;;;;;;;;;;6208623;23;20533;-82
2023/05/11 03:38:29;;;;;;;9.20;4.57;;;;;;;;;;6208140;23;20103;-83
2023/05/11 03:41:03;;;;;;;15.45;4.90;;;;;;;;;;6208475;23;20632;-83
2023/05/11 03:43:31;;;;;;;11.90;5.28;;;;;;;;;;6207763;23;20107;-83
2023/05/11 03:46:00;;;;;;;9.82;5.03;;;;;;;;;;6207511;23;20052;-84
2023/05/11 03:48:34;;;;;;;7.30;5.20;;;;;;;;;;6208673;23;20051;-82
2023/05/11 03:51:03;;;;;;;6.80;4.32;;;;;;;;;;6207878;23;20099;-83
2023/05/11 03:53:30;;;;;;;6.55;5.30;;;;;;;;;;6209234;23;20099;-83
2023/05/11 03:56:08;;;;;;;10.73;4.85;;;;;;;;;;6208041;23;20401;-83
2023/05/11 03:58:39;;;;;;;15.15;4.38;;;;;;;;;;6208152;23;20022;-83
2023/05/11 04:01:13;;;;;;;6.47;4.55;;;;;;;;;;6204135;23;20446;-82
2023/05/11 04:03:48;;;;;;;8.70;4.20;;;;;;;;;;6204577;23;20059;-83
2023/05/11 04:06:22;;;;;;;9.95;4.95;;;;;;;;;;6179416;23;20052;-83
2023/05/11 04:08:56;;;;;;;10.48;5.40;;;;;;;;;;6206723;23;20028;-83
2023/05/11 04:11:30;;;;;;;7.93;5.10;;;;;;;;;;6207833;23;20024;-83
2023/05/11 04:13:57;;;;;;;13.52;5.30;;;;;;;;;;6205647;23;20521;-83
2023/05/11 04:16:24;;;;;;;10.93;5.43;;;;;;;;;;6204258;23;20095;-83
2023/05/11 04:19:05;;;;;;;8.35;4.78;;;;;;;;;;6204263;23;20021;-86
2023/05/11 04:21:33;;;;;;;6.05;4.30;;;;;;;;;;6206001;23;20095;-84
2023/05/11 04:24:07;;;;;;;10.55;4.45;;;;;;;;;;6206559;23;20111;-83
2023/05/11 04:26:34;;;;;;;14.57;4.22;;;;;;;;;;6208545;23;20372;-84
2023/05/11 04:29:01;;;;;;;7.80;4.35;;;;;;;;;;6206871;23;20024;-83
2023/05/11 04:31:35;;;;;;;10.07;4.55;;;;;;;;;;6207162;23;20020;-83
2023/05/11 04:34:02;;;;;;;15.38;4.32;;;;;;;;;;6206613;23;20067;-83
2023/05/11 04:36:30;;;;;;;11.18;4.68;;;;;;;;;;6207393;23;20030;-84
2023/05/11 04:39:04;;;;;;;7.13;4.82;;;;;;;;;;6207698;23;20103;-84
2023/05/11 04:41:33;;;;;;;10.38;4.90;;;;;;;;;;6208705;23;20512;-84
2023/05/11 04:44:00;;;;;;;11.18;4.43;;;;;;;;;;6207624;23;20125;-83
2023/05/11 04:46:37;;;;;;;7.50;4.47;;;;;;;;;;6207913;23;20024;-84
2023/05/11 04:49:07;;;;;;;7.45;4.65;;;;;;;;;;6208264;23;20401;-83
2023/05/11 04:51:41;;;;;;;8.60;5.20;;;;;;;;;;6208854;23;20025;-83
2023/05/11 04:54:09;;;;;;;7.15;4.53;;;;;;;;;;6210288;23;20063;-83
2023/05/11 04:56:39;;;;;;;6.85;4.40;;;;;;;;;;6210842;23;20021;-84
2023/05/11 04:59:13;;;;;;;8.60;4.32;;;;;;;;;;6184645;23;20107;-83
2023/05/11 05:01:40;;;;;;;6.82;4.13;;;;;;;;;;6209469;23;20025;-84
2023/05/11 05:04:15;;;;;;;6.82;3.83;;;;;;;;;;6208189;23;20529;-83
2023/05/11 05:06:43;;;;;;;6.78;3.83;;;;;;;;;;6206411;23;20060;-83
2023/05/11 05:09:10;;;;;;;9.70;3.83;;;;;;;;;;6207920;23;20055;-83
2023/05/11 05:11:44;;;;;;;8.48;4.38;;;;;;;;;;6208618;23;20071;-84
2023/05/11 05:14:11;;;;;;;10.75;4.10;;;;;;;;;;6209993;23;20482;-83
2023/05/11 05:17:00;;;;;;;8.40;4.40;;;;;;;;;;6208602;23;20052;-83
2023/05/11 05:19:27;;;;;;;9.57;4.20;;;;;;;;;;6183873;23;20032;-83
2023/05/11 05:22:01;;;;;;;9.75;3.95;;;;;;;;;;6208739;23;20728;-83
2023/05/11 05:24:35;;;;;;;10.93;4.00;;;;;;;;;;6209676;23;20486;-83
2023/05/11 05:27:02;;;;;;;13.50;4.47;;;;;;;;;;6210014;23;20020;-83
2023/05/11 05:29:29;;;;;;;9.32;4.10;;;;;;;;;;6209675;23;20044;-83
2023/05/11 05:32:04;;;;;;;19.48;4.55;;;;;;;;;;6209470;23;20071;-83
2023/05/11 05:34:31;;;;;;;22.88;4.80;;;;;;;;;;6210174;23;20100;-82
2023/05/11 05:37:05;;;;;;;12.07;3.80;;;;;;;;;;6207315;23;20048;-82
2023/05/11 05:39:39;;;;;;;13.50;4.43;;;;;;;;;;6210755;23;20067;-83
2023/05/11 05:42:06;;;;;;;12.73;4.18;;;;;;;;;;6183199;23;20112;-82
2023/05/11 05:44:33;;;;;;;7.15;4.13;;;;;;;;;;6209716;23;20025;-83
2023/05/11 05:47:07;;;;;;;12.35;3.70;;;;;;;;;;6207965;23;20021;-84
2023/05/11 05:49:41;;;;;;;10.93;4.00;;;;;;;;;;6207605;23;20393;-82
2023/05/11 05:52:15;;;;;;;6.30;3.95;;;;;;;;;;6205704;23;20048;-83
2023/05/11 05:54:42;;;;;;;;;;;;;;;;;;6206148;23;20032;-83
2023/05/11 05:57:16;;;;;;;10.07;4.50;;;;;;;;;;6204012;23;19987;-82
2023/05/11 05:59:43;;;;;;;11.77;3.83;;;;;;;;;;6203297;23;20104;-83
2023/05/11 06:02:12;;;;;;;10.18;3.60;;;;;;;;;;6205329;23;20096;-83
2023/05/11 06:04:46;;;;;;;13.43;3.67;;;;;;;;;;6202893;23;20439;-83
2023/05/11 06:07:13;;;;;;;7.45;3.60;;;;;;;;;;6203267;23;20020;-82
2023/05/11 06:09:40;;;;;;;10.55;4.18;;;;;;;;;;6204375;23;20107;-81
2023/05/11 06:12:14;;;;;;;9.43;3.70;;;;;;;;;;6203775;23;20095;-81
2023/05/11 06:14:41;;;;;;;15.63;4.05;;;;;;;;;;6202787;23;20074;-82
2023/05/11 06:17:22;;;;;;;17.23;4.38;;;;;;;;;;6205702;23;20553;-81
2023/05/11 06:19:49;;;;;;;8.95;4.13;;;;;;;;;;6207090;23;20027;-82
2023/05/11 06:22:23;;;;;;;11.13;3.88;;;;;;;;;;6206140;23;20407;-82
2023/05/11 06:24:50;;;;;;;7.50;3.85;;;;;;;;;;6206071;23;20143;-81
2023/05/11 06:27:17;;;;;;;9.95;4.10;;;;;;;;;;6207484;23;20080;-83
2023/05/11 06:29:51;;;;;;;12.52;4.00;;;;;;;;;;6204537;23;20469;-81
2023/05/11 06:32:18;;;;;;;7.75;3.67;;;;;;;;;;6205999;23;20259;-81
2023/05/11 06:34:52;;;;;;;9.10;4.30;;;;;;;;;;6207026;23;20025;-81
2023/05/11 06:37:19;;;;;;;7.13;3.40;;;;;;;;;;6205906;23;20099;-81
2023/05/11 06:39:54;;;;;;;12.90;3.75;;;;;;;;;;6179523;23;20139;-83
2023/05/11 06:42:28;;;;;;;7.85;3.53;;;;;;;;;;6205077;23;20389;-83
2023/05/11 06:44:55;;;;;;;10.80;3.72;;;;;;;;;;6209136;23;20111;-85
2023/05/11 06:47:23;;;;;;;11.25;3.88;;;;;;;;;;6209111;23;20031;-82
2023/05/11 06:50:04;;;;;;;9.95;3.88;;;;;;;;;;6184174;23;20324;-82
2023/05/11 06:52:31;;;;;;;9.10;3.70;;;;;;;;;;6206769;23;20024;-81
2023/05/11 06:55:06;;;;;;;8.88;3.85;;;;;;;;;;6205863;23;20528;-81
2023/05/11 06:57:33;;;;;;;8.70;4.13;;;;;;;;;;6206380;23;20022;-81
2023/05/11 07:00:00;;;;;;;14.98;3.88;;;;;;;;;;6208078;23;20321;-81
2023/05/11 07:02:34;;;;;;;6.65;3.45;;;;;;;;;;6208681;23;20083;-81
2023/05/11 07:05:01;;;;;;;7.72;3.67;;;;;;;;;;6208786;23;20032;-81
2023/05/11 07:07:35;;;;;;;5.70;3.40;;;;;;;;;;6207700;23;20020;-82
2023/05/11 07:10:09;;;;;;;13.02;3.58;;;;;;;;;;6209088;23;20135;-82
2023/05/11 07:12:36;;;;;;;11.73;3.75;;;;;;;;;;6208608;23;20023;-80
2023/05/11 07:15:04;;;;;;;7.10;3.58;;;;;;;;;;6208573;23;20103;-81
2023/05/11 07:17:51;;;;;;;8.80;3.85;;;;;;;;;;6183099;23;20059;-82
2023/05/11 07:20:18;;;;;;;11.82;3.50;;;;;;;;;;6208700;23;20036;-81
2023/05/11 07:22:55;;;;;;;8.80;3.85;;;;;;;;;;6208090;23;20482;-82
2023/05/11 07:25:22;;;;;;;7.05;3.15;;;;;;;;;;6181847;23;20025;-82
2023/05/11 07:27:49;;;;;;;6.75;3.63;;;;;;;;;;6207935;23;20024;-81
2023/05/11 07:30:23;;;;;;;8.57;3.53;;;;;;;;;;6209083;23;20030;-81
2023/05/11 07:32:51;;;;;;;8.95;3.63;;;;;;;;;;6208490;23;20020;-81
2023/05/11 07:35:25;;;;;;;9.32;3.50;;;;;;;;;;6209655;23;20039;-82
2023/05/11 07:37:53;;;;;;;9.35;3.58;;;;;;;;;;6208188;23;20095;-81
2023/05/11 07:40:20;;;;;;;8.65;3.67;;;;;;;;;;6208626;23;20028;-82
2023/05/11 07:42:54;;;;;;;9.13;3.45;;;;;;;;;;6208550;23;20044;-80
2023/05/11 07:45:21;;;;;;;7.15;3.67;;;;;;;;;;6209322;23;20063;-81
2023/05/11 07:47:55;;;;;;;8.70;3.60;;;;;;;;;;6208910;23;20099;-82
2023/05/11 07:50:22;;;;;;;;;;;;;;;;;;6209471;23;20020;-82
2023/05/11 07:52:51;;;;;;;8.07;3.42;;;;;;;;;;6209198;23;19923;-81
2023/05/11 07:55:25;;;;;;;7.00;3.30;;;;;;;;;;6209967;23;20104;-81
2023/05/11 07:57:53;;;;;;;9.95;3.70;;;;;;;;;;6208445;23;20103;-82
2023/05/11 08:00:20;;;;;;;10.50;3.40;;;;;;;;;;6209643;23;20353;-82
2023/05/11 08:02:54;;;;;;;9.80;3.88;;;;;;;;;;6182909;23;20025;-82
2023/05/11 08:05:21;;;;;;;9.15;3.60;;;;;;;;;;6208456;23;20052;-81
2023/05/11 08:07:48;;;;;;;8.13;3.42;;;;;;;;;;6208026;23;20444;-81
2023/05/11 08:10:22;;;;;;;8.07;3.28;;;;;;;;;;6208351;23;20107;-82
2023/05/11 08:12:49;;;;;;;8.70;4.13;;;;;;;;;;6207550;23;20025;-82
2023/05/11 08:15:23;;;;;;;8.52;3.20;;;;;;;;;;6208665;23;20059;-82
2023/05/11 08:17:50;;;;;;;;;;;;;;;;;;6207871;23;20025;-82
2023/05/11 08:20:24;;;;;;;6.40;3.35;;;;;;;;;;6208606;23;19919;-82
2023/05/11 08:22:58;;;;;;;8.82;3.20;;;;;;;;;;6208554;23;20096;-81
2023/05/11 08:25:25;;;;;;;5.93;3.20;;;;;;;;;;6208707;23;20320;-82
2023/05/11 08:27:59;;;;;;;7.72;3.05;;;;;;;;;;6210025;23;20072;-79
2023/05/11 08:30:26;;;;;;;9.38;3.40;;;;;;;;;;6210570;23;20447;-80
2023/05/11 08:32:54;;;;;;;8.55;3.45;;;;;;;;;;6209961;23;20017;-80
2023/05/11 08:35:29;;;;;;;6.90;3.35;;;;;;;;;;6210800;23;20720;-79
2023/05/11 08:38:02;;;;;;;8.45;3.33;;;;;;;;;;6183958;23;20059;-80
2023/05/11 08:40:39;;;;;;;6.10;3.38;;;;;;;;;;6210119;23;20063;-80
2023/05/11 08:43:06;;;;;;;12.70;3.60;;;;;;;;;;6210452;23;20048;-79
2023/05/11 08:45:35;;;;;;;5.80;3.10;;;;;;;;;;6184624;23;20462;-80
2023/05/11 08:48:10;;;;;;;7.95;2.97;;;;;;;;;;6209985;23;20370;-81
2023/05/11 08:50:37;;;;;;;6.68;3.45;;;;;;;;;;6210548;23;20082;-79
2023/05/11 08:53:11;;;;;;;8.07;3.17;;;;;;;;;;6210318;23;20477;-82
2023/05/11 08:55:40;;;;;;;5.75;3.25;;;;;;;;;;6210834;23;20335;-80
2023/05/11 08:58:08;;;;;;;4.40;2.95;;;;;;;;;;6210421;23;20048;-80
2023/05/11 09:00:43;;;;;;;9.35;3.15;;;;;;;;;;6210833;23;20099;-80
2023/05/11 09:03:11;;;;;;;7.80;3.35;;;;;;;;;;6210557;23;20059;-80
2023/05/11 09:05:46;;;;;;;10.10;3.25;;;;;;;;;;6210049;23;20024;-81
2023/05/11 09:08:14;;;;;;;7.15;2.83;;;;;;;;;;6210923;23;20461;-80
2023/05/11 09:10:42;;;;;;;5.20;3.40;;;;;;;;;;6183706;23;20100;-79
2023/05/11 09:13:16;;;;;;;10.25;3.15;;;;;;;;;;6210541;23;20063;-83
2023/05/11 09:15:43;;;;;;;6.88;3.53;;;;;;;;;;6210581;23;20067;-80
2023/05/11 09:18:10;;;;;;;7.82;3.22;;;;;;;;;;6209073;23;20059;-79
2023/05/11 09:20:51;;;;;;;6.07;3.13;;;;;;;;;;6210637;23;20350;-79
2023/05/11 09:23:23;;;;;;;4.03;2.78;;;;;;;;;;6184433;23;20119;-79
2023/05/11 09:25:57;;;;;;;6.68;3.60;;;;;;;;;;6210488;23;20025;-79
2023/05/11 09:28:25;;;;;;;5.30;2.90;;;;;;;;;;6209937;23;20103;-80
2023/05/11 09:30:53;;;;;;;5.20;2.53;;;;;;;;;;6210696;23;20103;-79
2023/05/11 09:33:27;;;;;;;5.03;3.10;;;;;;;;;;6210350;23;20323;-79
2023/05/11 09:35:54;;;;;;;;;;;;;;;;;;6210132;23;20052;-80
2023/05/11 09:38:28;;;;;;;11.35;2.92;;;;;;;;;;6210076;23;19995;-80
2023/05/11 09:40:56;;;;;;;9.52;3.08;;;;;;;;;;6209026;23;20135;-81
2023/05/11 09:43:30;;;;;;;7.57;3.47;;;;;;;;;;6208246;23;20024;-80
2023/05/11 09:46:03;;;;;;;7.28;2.72;;;;;;;;;;6209678;23;20021;-80
2023/05/11 09:48:37;;;;;;;5.07;3.13;;;;;;;;;;6210769;23;20346;-80
2023/05/11 09:51:04;;;;;;;;;;;;;;;;;;6210265;23;20063;-80
2023/05/11 09:53:35;;;;;;;7.45;3.20;;;;;;;;;;6210616;23;19916;-79
2023/05/11 09:56:10;;;;;;;6.90;3.03;;;;;;;;;;6208751;23;20083;-80
2023/05/11 09:58:46;;;;;;;5.38;3.38;;;;;;;;;;6185057;23;20470;-79
2023/05/11 10:01:14;;;;;;;6.72;3.00;;;;;;;;;;6210480;23;20036;-79
2023/05/11 10:03:55;;;;;;;3.95;3.20;;;;;;;;;;6184040;23;20020;-80
2023/05/11 10:06:51;;;;;;;7.93;2.85;;;;;;;;;;6189709;23;20152;-78
2023/05/11 10:09:23;;;;;;;6.85;2.70;;;;;;;;;;6210481;23;20029;-79
2023/05/11 10:11:57;;;;;;;7.88;3.05;;;;;;;;;;6210133;23;20541;-79
2023/05/11 10:14:24;;;;;;;8.38;2.75;;;;;;;;;;6210730;23;20095;-80
2023/05/11 10:17:11;;;;;;;4.38;3.00;;;;;;;;;;6209699;23;20111;-80
2023/05/11 10:19:46;;;;;;;6.55;2.85;;;;;;;;;;6209647;23;20051;-79
2023/05/11 10:22:21;;;;;;;7.50;3.10;;;;;;;;;;6208847;23;20107;-78
2023/05/11 10:24:58;;;;;;;6.93;2.90;;;;;;;;;;6209802;23;20462;-79
2023/05/11 10:27:36;;;;;;;5.68;3.30;;;;;;;;;;6209453;23;20025;-80
2023/05/11 10:30:10;;;;;;;9.95;3.08;;;;;;;;;;6208521;23;20059;-80
2023/05/11 10:32:48;;;;;;;6.07;3.35;;;;;;;;;;6209953;23;20103;-80
2023/05/11 10:35:22;;;;;;;4.72;2.92;;;;;;;;;;6209078;23;20103;-81
2023/05/11 10:37:50;;;;;;;5.05;2.85;;;;;;;;;;6209687;23;20075;-80
2023/05/11 10:40:24;;;;;;;11.05;3.05;;;;;;;;;;6209270;23;20387;-79
2023/05/11 10:42:59;;;;;;;10.30;2.97;;;;;;;;;;6209311;23;20112;-79
2023/05/11 10:45:35;;;;;;;10.02;3.03;;;;;;;;;;6208128;23;20056;-80
2023/05/11 10:48:04;;;;;;;8.07;3.20;;;;;;;;;;6207928;23;20029;-80
2023/05/11 10:50:32;;;;;;;4.10;2.90;;;;;;;;;;6209660;23;20017;-79
2023/05/11 10:53:12;;;;;;;9.93;2.80;;;;;;;;;;6209579;23;20095;-81
2023/05/11 10:55:56;;;;;;;6.75;3.42;;;;;;;;;;6207994;23;20874;-79
2023/05/11 10:58:41;;;;;;;5.07;2.67;;;;;;;;;;6209028;23;20032;-81
2023/05/11 11:01:27;;;;;;;6.05;3.03;;;;;;;;;;6184188;23;20020;-79
2023/05/11 11:04:05;;;;;;;4.55;3.00;;;;;;;;;;6209136;23;20032;-79
2023/05/11 11:06:33;;;;;;;6.47;3.03;;;;;;;;;;6208689;23;20060;-79
2023/05/11 11:09:05;;;;;;;5.82;2.70;;;;;;;;;;6208722;23;20107;-80
2023/05/11 11:11:39;;;;;;;4.43;3.20;;;;;;;;;;6208606;23;20062;-79
2023/05/11 11:14:08;;;;;;;13.35;3.25;;;;;;;;;;6208349;23;20074;-79
2023/05/11 11:17:14;;;;;;;5.03;3.03;;;;;;;;;;6207204;23;20032;-79
2023/05/11 11:19:56;;;;;;;5.50;2.90;;;;;;;;;;6179234;23;20017;-80
2023/05/11 11:22:37;;;;;;;9.50;2.75;;;;;;;;;;6177728;23;20079;-79
2023/05/11 11:25:11;;;;;;;6.57;3.30;;;;;;;;;;6179059;23;20053;-79
2023/05/11 11:27:44;;;;;;;5.97;3.03;;;;;;;;;;6179256;23;20541;-80
2023/05/11 11:30:22;;;;;;;7.05;2.80;;;;;;;;;;6154430;23;20743;-80
2023/05/11 11:32:51;;;;;;;6.85;2.80;;;;;;;;;;6178980;23;20020;-79
2023/05/11 11:35:43;;;;;;;9.95;3.13;;;;;;;;;;6153854;23;20025;-80
2023/05/11 11:38:12;;;;;;;6.95;3.10;;;;;;;;;;6178469;23;20104;-80
2023/05/11 11:40:48;;;;;;;4.53;2.88;;;;;;;;;;6177723;23;20106;-80
2023/05/11 11:43:19;;;;;;;6.75;2.83;;;;;;;;;;6178641;23;20021;-81
2023/05/11 11:45:59;;;;;;;4.97;3.00;;;;;;;;;;6178958;23;20048;-81
2023/05/11 11:48:41;;;;;;;5.28;2.88;;;;;;;;;;6178471;23;20029;-81
2023/05/11 11:51:15;;;;;;;8.23;2.97;;;;;;;;;;6178835;23;20075;-81
2023/05/11 11:53:44;;;;;;;;;;;;;;;;;;6179185;23;20104;-80
2023/05/11 11:56:14;;;;;;;7.65;2.92;;;;;;;;;;6176805;23;20019;-80
2023/05/11 11:58:48;;;;;;;5.63;2.80;;;;;;;;;;6178786;23;20024;-81
2023/05/11 12:01:19;;;;;;;6.55;3.00;;;;;;;;;;6179576;23;20478;-80
2023/05/11 12:03:57;;;;;;;10.88;3.05;;;;;;;;;;6181022;23;20103;-79
2023/05/11 12:06:25;;;;;;;4.30;2.80;;;;;;;;;;6181345;23;20096;-81
2023/05/11 12:08:53;;;;;;;5.70;2.78;;;;;;;;;;6180508;23;20025;-81
2023/05/11 12:11:29;;;;;;;5.70;2.72;;;;;;;;;;6179668;23;20025;-80
2023/05/11 12:13:56;;;;;;;3.67;2.80;;;;;;;;;;6180432;23;20059;-79
2023/05/11 12:16:31;;;;;;;4.60;2.90;;;;;;;;;;6180310;23;20466;-80
2023/05/11 12:19:06;;;;;;;5.38;3.00;;;;;;;;;;6206521;23;20703;-80
2023/05/11 12:21:44;;;;;;;7.05;2.83;;;;;;;;;;6210488;23;20611;-79
2023/05/11 12:24:18;;;;;;;;;;;;;;;;;;6211546;23;20048;-80
2023/05/11 12:26:55;;;;;;;5.15;2.50;;;;;;;;;;6210623;23;20034;-80
2023/05/11 12:29:29;;;;;;;5.63;2.93;;;;;;;;;;6210934;23;20055;-80
2023/05/11 12:31:56;;;;;;;8.15;3.20;;;;;;;;;;6210148;23;20047;-80
2023/05/11 12:34:30;;;;;;;8.90;3.30;;;;;;;;;;6186082;23;20036;-80
2023/05/11 12:36:59;;;;;;;4.75;2.67;;;;;;;;;;6210201;23;20025;-80
2023/05/11 12:39:32;;;;;;;8.60;3.10;;;;;;;;;;6210416;23;20052;-81
2023/05/11 12:41:59;;;;;;;6.47;2.95;;;;;;;;;;6210174;23;20024;-80
2023/05/11 12:44:27;;;;;;;7.13;3.10;;;;;;;;;;6211100;23;20052;-80
2023/05/11 12:47:00;;;;;;;5.20;2.67;;;;;;;;;;6210735;23;20371;-80
2023/05/11 12:49:27;;;;;;;6.30;2.97;;;;;;;;;;6212564;23;20096;-81
2023/05/11 12:52:09;;;;;;;4.45;2.97;;;;;;;;;;6210715;23;20103;-80
2023/05/11 12:54:37;;;;;;;6.78;3.13;;;;;;;;;;6184045;23;20028;-80
2023/05/11 12:57:27;;;;;;;5.35;2.67;;;;;;;;;;6210059;23;20099;-79
2023/05/11 13:00:10;;;;;;;5.05;2.70;;;;;;;;;;6210349;23;20410;-81
2023/05/11 13:03:04;;;;;;;5.15;2.53;;;;;;;;;;6209660;23;20024;-81
2023/05/11 13:05:39;;;;;;;3.13;2.80;;;;;;;;;;6210265;23;20505;-81
2023/05/11 13:08:07;;;;;;;5.18;3.10;;;;;;;;;;6209979;23;20103;-81
2023/05/11 13:10:34;;;;;;;6.78;3.10;;;;;;;;;;6209412;23;20023;-80
2023/05/11 13:13:08;;;;;;;7.25;2.70;;;;;;;;;;6210867;23;20103;-81
2023/05/11 13:15:35;;;;;;;;;;;;;;;;;;6210927;23;20095;-81
2023/05/11 13:18:23;;;;;;;8.10;2.90;;;;;;;;;;6209488;23;19916;-80
2023/05/11 13:21:07;;;;;;;5.72;2.95;;;;;;;;;;6210256;23;20466;-80
2023/05/11 13:23:41;;;;;;;6.63;2.78;;;;;;;;;;6209814;23;20449;-80
2023/05/11 13:26:08;;;;;;;5.15;2.78;;;;;;;;;;6210125;23;20491;-80
2023/05/11 13:28:42;;;;;;;3.90;2.60;;;;;;;;;;6208247;23;20099;-81
2023/05/11 13:31:09;;;;;;;6.22;3.22;;;;;;;;;;6210908;23;20104;-80
2023/05/11 13:33:43;;;;;;;5.47;2.58;;;;;;;;;;6208543;23;20513;-81
2023/05/11 13:36:10;;;;;;;;;;;;;;;;;;6184813;23;20020;-80
2023/05/11 13:38:37;;;;;;;5.00;2.67;;;;;;;;;;6209407;23;19919;-80
2023/05/11 13:41:12;;;;;;;5.53;3.00;;;;;;;;;;6209730;23;20349;-80
2023/05/11 13:43:40;;;;;;;6.47;2.92;;;;;;;;;;6210011;23;20104;-80
2023/05/11 13:46:13;;;;;;;7.60;3.10;;;;;;;;;;6209577;23;20062;-80
2023/05/11 13:48:40;;;;;;;9.05;2.70;;;;;;;;;;6159151;23;20052;-79
2023/05/11 13:51:07;;;;;;;6.85;3.17;;;;;;;;;;6211131;23;20052;-80
2023/05/11 13:53:41;;;;;;;5.70;2.95;;;;;;;;;;6209535;23;20405;-81
2023/05/11 13:56:08;;;;;;;;;;;;;;;;;;6210122;23;20027;-81
2023/05/11 13:58:42;;;;;;;76.85;5.72;;;;;;;;;;6185041;23;20402;-80
2023/05/11 14:01:09;;;;;;;;;;;;;;;;;;6209737;23;20025;-81
2023/05/11 14:03:38;;;;;;;8.30;2.70;;;;;;;;;;6209804;23;19916;-81
2023/05/11 14:06:12;;;;;;;6.97;3.25;;;;;;;;;;6209640;23;20036;-80
2023/05/11 14:08:40;;;;;;;6.15;3.03;;;;;;;;;;6209261;23;20103;-79
2023/05/11 14:11:07;;;;;;;6.18;3.53;;;;;;;;;;6209398;23;20405;-80
2023/05/11 14:13:41;;;;;;;9.40;4.03;;;;;;;;;;6209844;23;20529;-80
2023/05/11 14:16:08;;;;;;;11.60;4.35;;;;;;;;;;6207884;23;20490;-81
2023/05/11 14:18:49;;;;;;;8.65;3.33;;;;;;;;;;6208074;23;20060;-81
2023/05/11 14:21:17;;;;;;;9.68;3.78;;;;;;;;;;6183019;23;20024;-80
2023/05/11 14:23:51;;;;;;;7.70;3.08;;;;;;;;;;6207683;23;20103;-80
2023/05/11 14:26:38;;;;;;;16.15;3.28;;;;;;;;;;6186926;23;20052;-81
2023/05/11 14:29:05;;;;;;;11.07;3.58;;;;;;;;;;6208995;23;20379;-80
2023/05/11 14:31:40;;;;;;;12.30;3.67;;;;;;;;;;6184660;23;20024;-81
2023/05/11 14:34:07;;;;;;;;;;;;;;;;;;6209935;23;20058;-81
2023/05/11 14:36:34;;;;;;;10.25;3.90;;;;;;;;;;6207498;23;19922;-82
2023/05/11 14:39:08;;;;;;;5.78;3.40;;;;;;;;;;6208639;23;20477;-81
2023/05/11 14:41:35;;;;;;;8.73;3.50;;;;;;;;;;6209089;23;20145;-81
2023/05/11 14:44:09;;;;;;;7.15;3.30;;;;;;;;;;6208804;23;20064;-81
2023/05/11 14:46:36;;;;;;;8.57;3.30;;;;;;;;;;6208465;23;20051;-81
2023/05/11 14:49:03;;;;;;;;;;;;;;;;;;6209725;23;20029;-81
2023/05/11 14:51:37;;;;;;;9.43;3.60;;;;;;;;;;6207878;23;19916;-81
2023/05/11 14:54:05;;;;;;;12.18;3.60;;;;;;;;;;6206145;23;20047;-81
2023/05/11 14:56:32;;;;;;;6.75;3.20;;;;;;;;;;6208325;23;20059;-81
2023/05/11 14:59:06;;;;;;;5.82;3.60;;;;;;;;;;6207668;23;20024;-81
2023/05/11 15:01:33;;;;;;;;;;;;;;;;;;6209494;23;20048;-81
2023/05/11 15:04:07;;;;;;;8.68;3.67;;;;;;;;;;6207466;23;20334;-81
2023/05/11 15:06:35;;;;;;;;;;;;;;;;;;6209472;23;20059;-81
2023/05/11 15:09:08;;;;;;;8.07;3.30;;;;;;;;;;6208958;23;19946;-81
2023/05/11 15:11:38;;;;;;;;;;;;;;;;;;6183304;23;20060;-81
2023/05/11 15:14:06;;;;;;;12.98;3.53;;;;;;;;;;6208510;23;20253;-81